Fairfield, New York
Current Conditions -  °F | °C
As of 5:53 PM on Tuesday 21 Oct 2014 (Local Time) from KRME Reporting Station
Overcast Overcast  
Wind Chill: 52°   Ceiling: 4000
Heat Index: 52°   Visibility: 10mi
Dew Point: 48°   Wind: 5mph
Humidity: 86%   Direction: 100°E
Pressure: 29.93"   Gusts: NA
Location:  43.1378°N, 74.9232°W
Report Text: KRME 212153Z 10004KT 10SM SCT020 OVC040 11/09 A2993 RMK AO2 SLP136 T01110089
Loading
Personal Weather Stations






























Interactive Weather Map
Tropical Storm Tracking
New forecast layout! Learn more

10-Day Weather Forecast

Advertisements
Track Severe Weather on mobile